Time;durP1;ratioP1;P1;durP2;ratioP2;P2;SDS_P1;SDS_P2;PMS_P1;PMS_P2;Temp;Humidity;BMP_temperature;BMP_pressure;BME280_temperature;BME280_humidity;BME280_pressure;Samples;Min_cycle;Max_cycle;Signal;HPM_P1;HPM_P2
2022/02/20 00:00:14;;;;;;;2.12;0.95;;;;;;;5.33;60.85;101787.75;1854871;77;21143;-64
2022/02/20 00:02:43;;;;;;;0.93;0.70;;;;;;;5.31;60.83;101785.99;1852351;77;21077;-67
2022/02/20 00:05:12;;;;;;;0.57;0.57;;;;;;;5.30;61.09;101779.05;1850989;77;21050;-67
2022/02/20 00:07:40;;;;;;;0.70;0.68;;;;;;;5.30;61.53;101769.91;1847529;77;21010;-67
2022/02/20 00:10:09;;;;;;;3.55;1.20;;;;;;;5.36;61.91;101764.67;1854680;77;21061;-69
2022/02/20 00:12:38;;;;;;;1.17;1.07;;;;;;;5.39;61.91;101777.29;1848567;77;21124;-70
2022/02/20 00:15:07;;;;;;;1.35;0.88;;;;;;;5.39;61.96;101765.53;1849790;77;21677;-72
2022/02/20 00:17:36;;;;;;;1.02;0.60;;;;;;;5.40;62.65;101760.76;1851502;77;21480;-69
2022/02/20 00:20:05;;;;;;;2.33;0.80;;;;;;;5.42;63.02;101721.55;1846368;78;21046;-68
2022/02/20 00:22:34;;;;;;;0.72;0.72;;;;;;;5.48;63.46;101752.91;1851095;77;21021;-67
2022/02/20 00:25:04;;;;;;;1.40;0.70;;;;;;;5.52;63.31;101744.63;1854381;77;21543;-68
2022/02/20 00:27:32;;;;;;;0.90;0.70;;;;;;;5.56;63.26;101737.21;1855565;77;21135;-66
2022/02/20 00:30:01;;;;;;;1.62;0.72;;;;;;;5.56;63.22;101718.92;1855834;77;21105;-63
2022/02/20 00:32:31;;;;;;;1.00;0.90;;;;;;;5.60;63.38;101719.34;1848221;77;21122;-59
2022/02/20 00:35:00;;;;;;;1.67;0.70;;;;;;;5.64;63.18;101732.82;1824844;79;21112;-63
2022/02/20 00:37:28;;;;;;;1.47;0.93;;;;;;;5.68;62.53;101738.50;1836791;77;21081;-62
2022/02/20 00:39:57;;;;;;;1.57;0.70;;;;;;;5.67;62.43;101717.15;1856168;77;21488;-62
2022/02/20 00:42:26;;;;;;;2.37;0.65;;;;;;;5.65;62.29;101714.98;1855923;77;21025;-61
2022/02/20 00:44:55;;;;;;;1.75;0.78;;;;;;;5.63;62.13;101721.95;1855817;77;21516;-62
2022/02/20 00:47:24;;;;;;;1.37;0.80;;;;;;;5.63;61.86;101710.20;1855837;77;21042;-63
2022/02/20 00:49:53;;;;;;;2.25;0.70;;;;;;;5.63;61.67;101721.95;1840678;77;21143;-63
2022/02/20 00:52:21;;;;;;;1.67;0.95;;;;;;;5.60;61.63;101731.09;1804295;79;21536;-63
2022/02/20 00:54:50;;;;;;;1.57;0.90;;;;;;;5.56;61.80;101729.38;1775238;81;21105;-63
2022/02/20 00:57:21;;;;;;;0.62;0.60;;;;;;;5.52;61.94;101714.14;1823858;79;21205;-64
2022/02/20 00:59:49;;;;;;;2.80;0.90;;;;;;;5.49;62.41;101731.12;1804249;79;21220;-64
2022/02/20 01:02:18;;;;;;;3.45;1.62;;;;;;;5.46;62.64;101726.34;1769485;81;21246;-63
2022/02/20 01:04:48;;;;;;;3.72;1.12;;;;;;;5.45;63.10;101718.95;1738333;81;21208;-66
2022/02/20 01:07:18;;;;;;;1.60;0.80;;;;;;;5.45;63.38;101716.78;1738278;82;21129;-64
2022/02/20 01:09:47;;;;;;;1.62;0.60;;;;;;;5.42;63.44;101705.88;1738324;82;21535;-65
2022/02/20 01:12:17;;;;;;;4.80;0.93;;;;;;;5.41;63.60;101707.63;1738104;82;21583;-65
2022/02/20 01:14:46;;;;;;;1.22;0.72;;;;;;;5.41;63.55;101707.63;1756921;82;21041;-64
2022/02/20 01:17:15;;;;;;;0.65;0.62;;;;;;;5.40;63.67;101697.18;1795824;80;21073;-64
2022/02/20 01:19:44;;;;;;;2.15;1.40;;;;;;;5.38;63.84;101705.02;1795847;80;21131;-64
2022/02/20 01:22:14;;;;;;;1.15;0.70;;;;;;;5.37;64.36;101701.98;1795850;80;21116;-64
2022/02/20 01:24:42;;;;;;;1.72;0.82;;;;;;;5.38;64.47;101693.27;1795834;80;21081;-65
2022/02/20 01:27:11;;;;;;;3.52;0.95;;;;;;;5.40;64.32;101691.55;1825384;78;21032;-64
2022/02/20 01:29:40;;;;;;;1.70;1.07;;;;;;;5.43;64.29;101696.33;1833291;77;21149;-64
2022/02/20 01:32:09;;;;;;;1.92;0.70;;;;;;;5.43;64.30;101705.47;1833191;77;21088;-64
2022/02/20 01:34:37;;;;;;;1.15;0.60;;;;;;;5.45;64.19;101697.19;1833362;78;21146;-65
2022/02/20 01:37:06;;;;;;;3.22;0.88;;;;;;;5.50;63.81;101685.85;1833099;78;21592;-65
2022/02/20 01:39:35;;;;;;;1.25;0.60;;;;;;;5.50;63.68;101697.61;1833292;78;21119;-65
2022/02/20 01:42:18;;;;;;;1.92;0.80;;;;;;;5.53;63.38;101687.16;1832435;78;21075;-66
2022/02/20 01:44:46;;;;;;;2.20;0.88;;;;;;;5.52;63.39;101674.95;1833186;77;21055;-66
2022/02/20 01:47:16;;;;;;;1.70;0.82;;;;;;;5.52;63.29;101672.79;1805424;78;21072;-64
2022/02/20 01:49:45;;;;;;;4.05;0.65;;;;;;;5.57;63.21;101682.77;1833143;78;21059;-63
2022/02/20 01:52:14;;;;;;;1.37;0.78;;;;;;;5.57;63.41;101678.84;1833184;77;21564;-65
2022/02/20 01:54:43;;;;;;;1.50;0.90;;;;;;;5.54;63.42;101682.34;1833285;78;21498;-65
2022/02/20 01:57:12;;;;;;;1.42;0.90;;;;;;;5.51;63.52;101697.16;1833221;78;21650;-65
2022/02/20 01:59:43;;;;;;;0.98;0.70;;;;;;;5.48;63.80;101686.70;1773866;78;21052;-63
2022/02/20 02:02:19;;;;;;;1.32;0.60;;;;;;;5.46;63.99;101676.30;1805117;78;21098;-63
2022/02/20 02:04:45;;;;;;;1.50;0.60;;;;;;;5.44;64.01;101669.31;1833947;77;21125;-65
2022/02/20 02:07:14;;;;;;;2.77;0.70;;;;;;;5.46;64.33;101652.78;1834657;78;21492;-64
2022/02/20 02:09:45;;;;;;;0.82;0.75;;;;;;;5.47;64.20;101656.25;1834952;77;21057;-63
2022/02/20 02:12:28;;;;;;;1.85;0.80;;;;;;;5.47;63.99;101664.09;1809400;78;21088;-64
2022/02/20 02:15:03;;;;;;;1.98;0.70;;;;;;;5.48;63.93;101650.14;1835043;77;21115;-63
2022/02/20 02:17:46;;;;;;;2.12;1.10;;;;;;;5.46;64.06;101659.31;1834637;77;21176;-63
2022/02/20 02:20:16;;;;;;;2.33;0.70;;;;;;;5.49;64.24;101648.83;1834222;78;21084;-63
2022/02/20 02:22:55;;;;;;;1.07;0.70;;;;;;;5.52;64.01;101645.36;1821856;78;21483;-63
2022/02/20 02:25:32;;;;;;;0.88;0.80;;;;;;;5.53;63.88;101649.28;1814760;77;21135;-63
2022/02/20 02:28:20;;;;;;;1.17;0.90;;;;;;;5.55;63.67;101649.25;1816243;79;21069;-63
2022/02/20 02:30:50;;;;;;;1.52;0.70;;;;;;;5.57;63.41;101648.38;1748548;82;21485;-63
2022/02/20 02:33:33;;;;;;;0.88;0.70;;;;;;;5.57;63.21;101658.84;1762835;80;21538;-64
2022/02/20 02:36:05;;;;;;;1.20;0.80;;;;;;;5.58;62.97;101664.92;1852313;77;21117;-64
2022/02/20 02:38:35;;;;;;;4.33;0.75;;;;;;;5.56;62.63;101653.61;1852377;77;21061;-63
2022/02/20 02:41:06;;;;;;;0.90;0.70;;;;;;;5.55;62.55;101653.16;1852465;77;21050;-63
2022/02/20 02:43:36;;;;;;;0.60;0.60;;;;;;;5.52;62.57;101651.89;1852446;77;21042;-63
2022/02/20 02:46:06;;;;;;;1.85;0.80;;;;;;;5.50;62.49;101656.25;1852315;77;21057;-63
2022/02/20 02:48:36;;;;;;;0.55;0.50;;;;;;;5.48;62.37;101640.58;1852281;77;21562;-61
2022/02/20 02:51:04;;;;;;;2.40;0.75;;;;;;;5.48;62.26;101633.16;1852304;77;21484;-63
2022/02/20 02:53:33;;;;;;;0.98;0.72;;;;;;;5.50;62.17;101646.66;1852413;77;21135;-63
2022/02/20 02:56:02;;;;;;;0.60;0.50;;;;;;;5.50;61.94;101651.89;1844795;77;21108;-61
2022/02/20 02:58:32;;;;;;;0.90;0.78;;;;;;;5.52;61.76;101646.66;1852241;77;21614;-59
2022/02/20 03:01:03;;;;;;;0.62;0.60;;;;;;;5.54;61.52;101635.77;1852369;77;21058;-60
2022/02/20 03:03:33;;;;;;;2.83;0.93;;;;;;;5.55;61.47;101636.19;1852382;77;21088;-64
2022/02/20 03:06:03;;;;;;;1.25;0.90;;;;;;;5.55;61.26;101633.16;1852341;77;21183;-64
2022/02/20 03:08:32;;;;;;;0.70;0.50;;;;;;;5.55;61.27;101630.95;1852117;77;21105;-64
2022/02/20 03:11:20;;;;;;;1.95;0.80;;;;;;;5.52;61.43;101638.38;1762445;81;21179;-63
2022/02/20 03:13:50;;;;;;;1.37;0.70;;;;;;;5.51;61.45;101618.79;1802760;79;21085;-62
2022/02/20 03:16:21;;;;;;;2.25;0.80;;;;;;;5.52;61.49;101616.63;1800296;79;21503;-62
2022/02/20 03:18:51;;;;;;;1.72;0.80;;;;;;;5.53;61.50;101626.18;1802690;79;21089;-63
2022/02/20 03:21:22;;;;;;;1.15;0.70;;;;;;;5.50;61.60;101634.05;1800301;78;21143;-63
2022/02/20 03:23:52;;;;;;;1.10;0.90;;;;;;;5.48;61.73;101635.36;1800452;80;21878;-63
2022/02/20 03:26:22;;;;;;;1.07;0.70;;;;;;;5.48;61.80;101631.44;1802676;79;21507;-62
2022/02/20 03:28:52;;;;;;;4.25;1.00;;;;;;;5.50;61.66;101624.91;1802351;80;21526;-63
2022/02/20 03:31:23;;;;;;;1.30;0.60;;;;;;;5.50;61.65;101627.52;1802214;80;21576;-62
2022/02/20 03:33:52;;;;;;;1.10;0.88;;;;;;;5.51;61.49;101624.02;1797292;80;21186;-64
2022/02/20 03:36:20;;;;;;;1.65;0.80;;;;;;;5.55;61.24;101638.38;1802422;80;21134;-63
2022/02/20 03:38:49;;;;;;;5.45;0.60;;;;;;;5.58;61.01;101641.41;1802409;80;21636;-62
2022/02/20 03:41:19;;;;;;;1.50;0.62;;;;;;;5.59;60.96;101636.63;1802193;80;21106;-60
2022/02/20 03:43:48;;;;;;;1.32;0.80;;;;;;;5.59;61.04;101644.02;1802490;80;21103;-60
2022/02/20 03:46:18;;;;;;;2.98;0.70;;;;;;;5.57;61.01;101639.66;1802329;80;21080;-61
2022/02/20 03:48:52;;;;;;;1.82;0.50;;;;;;;5.54;61.09;101656.22;1801954;80;21094;-61
2022/02/20 03:51:22;;;;;;;3.00;1.27;;;;;;;5.51;61.27;101653.61;1801894;80;21165;-62
2022/02/20 03:53:51;;;;;;;0.40;0.40;;;;;;;5.51;61.39;101656.67;1802364;80;21470;-62
2022/02/20 03:56:20;;;;;;;1.17;0.60;;;;;;;5.49;61.49;101673.65;1802465;80;21137;-62
2022/02/20 03:58:50;;;;;;;0.88;0.60;;;;;;;5.48;61.82;101682.38;1802235;80;21098;-61
2022/02/20 04:01:19;;;;;;;1.95;0.88;;;;;;;5.48;61.98;101691.93;1802294;80;21549;-62
2022/02/20 04:03:50;;;;;;;0.80;0.60;;;;;;;5.47;62.17;101693.69;1802596;80;21048;-62
2022/02/20 04:06:39;;;;;;;0.82;0.70;;;;;;;5.46;62.00;101688.05;1802277;80;21096;-65
2022/02/20 04:09:30;;;;;;;1.67;1.07;;;;;;;5.48;62.40;101691.93;1834065;78;21196;-65
2022/02/20 04:11:59;;;;;;;0.60;0.60;;;;;;;5.47;62.59;101698.05;1908171;75;21155;-66
2022/02/20 04:14:32;;;;;;;1.47;0.80;;;;;;;5.47;62.64;101710.66;1906868;74;21105;-65
2022/02/20 04:17:03;;;;;;;0.75;0.72;;;;;;;5.47;62.54;101712.41;1906772;75;21089;-63
2022/02/20 04:19:32;;;;;;;3.45;0.90;;;;;;;5.40;62.50;101720.69;1908186;75;21041;-63
2022/02/20 04:22:02;;;;;;;1.20;0.70;;;;;;;5.37;62.53;101727.25;1908112;75;21131;-63
2022/02/20 04:24:31;;;;;;;4.80;0.70;;;;;;;5.34;62.74;101726.80;1908272;75;21092;-63
2022/02/20 04:26:59;;;;;;;1.90;0.78;;;;;;;5.37;62.64;101732.02;1932379;74;21468;-63
2022/02/20 04:29:33;;;;;;;2.25;0.70;;;;;;;5.36;62.47;101733.33;1939154;74;21177;-64
2022/02/20 04:32:03;;;;;;;2.02;0.75;;;;;;;5.31;62.37;101739.88;1942193;74;21484;-64
2022/02/20 04:34:32;;;;;;;2.33;1.00;;;;;;;5.30;62.46;101731.59;1941958;73;21029;-65
2022/02/20 04:37:01;;;;;;;0.65;0.50;;;;;;;5.30;62.40;101730.29;1942126;74;21022;-64
2022/02/20 04:39:30;;;;;;;2.15;0.60;;;;;;;5.38;62.44;101725.91;1942061;73;21201;-65
2022/02/20 04:41:59;;;;;;;2.62;0.70;;;;;;;5.56;62.39;101732.84;1942164;74;21542;-63
2022/02/20 04:44:42;;;;;;;1.10;0.80;;;;;;;5.68;62.26;101742.83;1938968;74;21191;-66
2022/02/20 04:47:12;;;;;;;0.85;0.65;;;;;;;5.79;62.03;101747.17;1941209;74;21592;-65
2022/02/20 04:49:41;;;;;;;1.80;0.95;;;;;;;5.92;61.86;101758.45;1942049;74;21166;-64
2022/02/20 04:52:17;;;;;;;0.80;0.80;;;;;;;6.04;61.67;101745.80;1939629;74;21159;-61
2022/02/20 04:55:00;;;;;;;0.95;0.80;;;;;;;6.27;61.49;101742.20;1939513;74;21077;-62
2022/02/20 04:57:34;;;;;;;2.12;1.07;;;;;;;6.51;61.44;101740.77;1942034;74;21452;-63
2022/02/20 05:00:05;;;;;;;1.37;0.90;;;;;;;6.67;61.49;101744.14;1942140;74;21033;-62
2022/02/20 05:02:36;;;;;;;2.98;1.62;;;;;;;6.85;61.55;101748.83;1936677;74;21093;-62
2022/02/20 05:05:07;;;;;;;1.72;1.10;;;;;;;7.00;61.52;101736.06;1942101;74;21119;-63
2022/02/20 05:10:26;;;;;;;1.85;1.10;;;;;;;7.56;60.71;101756.91;1875890;76;21531;-62
2022/02/20 05:12:55;;;;;;;0.80;0.72;;;;;;;7.87;60.54;101747.41;1875912;76;21052;-63
2022/02/20 05:15:25;;;;;;;3.60;1.57;;;;;;;8.18;60.65;101750.53;1844550;78;21531;-63
2022/02/20 05:17:58;;;;;;;3.37;1.40;;;;;;;8.51;60.61;101747.06;1844568;77;21195;-62
2022/02/20 05:20:27;;;;;;;4.12;1.65;;;;;;;8.73;60.60;101759.88;1844277;77;21504;-62
2022/02/20 05:22:57;;;;;;;1.80;1.20;;;;;;;8.99;59.93;101763.41;1844634;76;21570;-63
2022/02/20 05:25:25;;;;;;;1.80;1.30;;;;;;;9.21;58.43;101765.24;1844177;78;21118;-63
2022/02/20 05:27:54;;;;;;;3.52;1.30;;;;;;;9.36;57.51;101757.08;1862287;77;21074;-63
2022/02/20 05:30:24;;;;;;;2.27;1.05;;;;;;;9.68;57.52;101773.16;1861681;77;21088;-62
2022/02/20 05:32:55;;;;;;;2.17;1.60;;;;;;;9.98;56.69;101771.27;1860896;77;21499;-63
2022/02/20 05:35:26;;;;;;;1.65;1.10;;;;;;;10.11;55.76;101774.97;1862189;77;21552;-64
2022/02/20 05:37:54;;;;;;;1.77;1.10;;;;;;;10.08;55.23;101785.09;1862469;77;21054;-63
2022/02/20 05:40:25;;;;;;;1.75;1.30;;;;;;;9.68;55.14;101778.42;1862355;77;21161;-63
2022/02/20 05:42:58;;;;;;;2.05;1.15;;;;;;;9.27;55.03;101776.50;1861833;77;21139;-61
2022/02/20 05:45:29;;;;;;;4.17;1.62;;;;;;;8.97;55.57;101780.96;1862026;77;21147;-66
2022/02/20 05:48:00;;;;;;;2.22;1.40;;;;;;;8.78;56.03;101784.30;1861968;77;21147;-66
2022/02/20 05:50:31;;;;;;;4.28;1.60;;;;;;;8.65;56.35;101779.66;1862144;77;21089;-65
2022/02/20 05:53:19;;;;;;;1.80;1.32;;;;;;;8.54;56.58;101777.64;1926152;74;21559;-65
2022/02/20 05:55:48;;;;;;;3.42;1.47;;;;;;;8.49;56.84;101775.09;1926029;74;21516;-64
2022/02/20 05:58:18;;;;;;;2.72;1.47;;;;;;;8.47;56.99;101779.05;1926177;74;21050;-64
2022/02/20 06:00:49;;;;;;;2.75;1.10;;;;;;;8.43;57.29;101772.11;1924761;74;21159;-64
2022/02/20 06:03:17;;;;;;;1.85;1.17;;;;;;;8.42;57.47;101765.56;1926441;74;21512;-64
2022/02/20 06:05:51;;;;;;;2.60;1.35;;;;;;;8.39;57.78;101761.20;1922060;74;21053;-62
2022/02/20 06:08:28;;;;;;;3.95;1.92;;;;;;;8.41;57.99;101753.28;1924107;74;21169;-61
2022/02/20 06:10:58;;;;;;;2.80;1.42;;;;;;;8.46;58.04;101759.37;1923536;74;21110;-64
2022/02/20 06:13:45;;;;;;;2.10;1.30;;;;;;;8.53;58.04;101750.98;1926122;74;21203;-63
2022/02/20 06:16:16;;;;;;;2.15;1.47;;;;;;;8.63;58.08;101751.25;1919742;74;21042;-64
2022/02/20 06:19:02;;;;;;;1.32;1.10;;;;;;;8.70;58.08;101755.53;1923391;74;21187;-64
2022/02/20 06:21:38;;;;;;;2.75;1.27;;;;;;;8.71;58.01;101765.16;1923719;74;21094;-65
2022/02/20 06:24:09;;;;;;;3.05;1.27;;;;;;;8.75;57.85;101752.39;1911696;74;21065;-64
2022/02/20 06:26:51;;;;;;;2.83;1.40;;;;;;;8.74;57.94;101766.85;1894143;74;21057;-64
2022/02/20 06:29:19;;;;;;;3.25;1.35;;;;;;;8.70;58.09;101760.78;1926076;74;21089;-63
2022/02/20 06:31:49;;;;;;;6.20;4.50;;;;;;;8.73;58.07;101752.87;1926185;74;21114;-64
2022/02/20 06:34:18;;;;;;;3.85;1.87;;;;;;;8.79;58.15;101756.70;1926237;74;21468;-63
2022/02/20 06:36:48;;;;;;;1.85;1.27;;;;;;;8.82;58.09;101750.55;1926157;74;21042;-65
2022/02/20 06:39:17;;;;;;;5.20;1.45;;;;;;;8.89;58.15;101752.19;1926205;74;21124;-65
2022/02/20 06:41:47;;;;;;;4.67;1.65;;;;;;;8.93;57.73;101751.67;1926149;74;21046;-61
2022/02/20 06:44:17;;;;;;;2.92;1.70;;;;;;;9.02;57.73;101755.04;1926280;74;21042;-62
2022/02/20 06:47:00;;;;;;;3.22;1.62;;;;;;;9.13;57.59;101739.09;1926017;74;21587;-61
2022/02/20 06:49:43;;;;;;;3.80;1.60;;;;;;;9.47;57.22;101751.63;1924765;74;21159;-62
2022/02/20 06:52:16;;;;;;;2.60;1.70;;;;;;;10.03;56.37;101747.05;1891593;73;21187;-62
2022/02/20 06:54:45;;;;;;;2.52;1.50;;;;;;;10.53;55.53;101741.61;1890084;76;21477;-63
2022/02/20 06:57:35;;;;;;;2.85;1.67;;;;;;;10.65;54.19;101729.06;1894093;75;21090;-64
2022/02/20 07:00:07;;;;;;;2.95;1.20;;;;;;;10.92;54.00;101722.23;1895559;76;21111;-63
2022/02/20 07:02:36;;;;;;;2.77;1.57;;;;;;;11.30;53.24;101725.67;1895358;76;21125;-64
2022/02/20 07:05:06;;;;;;;5.22;1.80;;;;;;;11.69;52.45;101726.39;1894166;76;21086;-62
2022/02/20 07:07:37;;;;;;;3.27;1.70;;;;;;;12.69;51.12;101727.38;1893638;76;21079;-63
2022/02/20 07:10:09;;;;;;;3.52;2.00;;;;;;;13.74;49.19;101711.04;1893489;76;21055;-62
2022/02/20 07:12:38;;;;;;;2.87;1.87;;;;;;;14.43;46.99;101712.39;1893519;76;21031;-63
2022/02/20 07:15:08;;;;;;;2.92;1.70;;;;;;;14.06;46.83;101718.65;1893481;76;21047;-63
2022/02/20 07:17:37;;;;;;;2.77;1.92;;;;;;;14.34;46.32;101703.48;1893623;76;21043;-62
2022/02/20 07:20:07;;;;;;;3.58;1.92;;;;;;;14.88;45.36;101702.66;1893472;76;21165;-62
2022/02/20 07:22:36;;;;;;;4.45;1.90;;;;;;;15.08;44.29;101708.45;1893606;76;21082;-63
2022/02/20 07:25:06;;;;;;;4.20;2.00;;;;;;;13.87;45.24;101704.39;1893571;76;21011;-63
2022/02/20 07:27:43;;;;;;;5.25;2.02;;;;;;;13.29;46.08;101706.00;1893422;75;22371;-62
2022/02/20 07:30:13;;;;;;;2.75;2.02;;;;;;;13.98;45.59;101680.13;1893638;75;21033;-62
2022/02/20 07:32:42;;;;;;;4.08;2.45;;;;;;;15.01;44.10;101668.94;1893587;75;21045;-62
2022/02/20 07:35:10;;;;;;;3.80;2.47;;;;;;;15.63;42.46;101686.12;1893531;76;21052;-61
2022/02/20 07:37:40;;;;;;;3.50;1.92;;;;;;;15.75;41.75;101654.20;1893326;76;21136;-63
2022/02/20 07:40:09;;;;;;;5.12;2.25;;;;;;;16.04;41.57;101662.61;1893596;76;21554;-62
2022/02/20 07:42:38;;;;;;;5.15;1.92;;;;;;;15.67;41.68;101673.10;1893430;76;21004;-61
2022/02/20 07:45:08;;;;;;;5.28;1.70;;;;;;;15.73;41.45;101655.59;1889756;76;21449;-61
2022/02/20 07:47:52;;;;;;;4.35;2.08;;;;;;;15.81;40.97;101666.73;1893407;76;21025;-65
2022/02/20 07:50:26;;;;;;;3.17;2.20;;;;;;;16.06;40.19;101624.88;1893381;76;21019;-65
2022/02/20 07:52:57;;;;;;;8.18;2.42;;;;;;;16.13;40.31;101656.38;1896275;75;21193;-64
2022/02/20 07:55:27;;;;;;;4.62;1.70;;;;;;;16.30;39.89;101661.36;1902867;75;21169;-64
2022/02/20 07:57:56;;;;;;;4.75;2.15;;;;;;;16.36;39.79;101665.06;1933482;74;21077;-62
2022/02/20 08:00:30;;;;;;;2.92;1.60;;;;;;;16.86;39.80;101643.57;1933655;74;21581;-62
2022/02/20 08:02:56;;;;;;;2.95;2.02;;;;;;;17.20;38.40;101655.97;1892441;75;21165;-63
2022/02/20 08:05:25;;;;;;;3.08;1.70;;;;;;;17.54;37.62;101662.19;1893422;75;21117;-63
2022/02/20 08:07:54;;;;;;;4.05;2.33;;;;;;;17.61;37.12;101647.57;1902991;75;21713;-63
2022/02/20 08:10:23;;;;;;;4.75;2.50;;;;;;;17.03;37.84;101662.17;1933596;74;21549;-64
2022/02/20 08:12:53;;;;;;;6.40;2.60;;;;;;;16.96;38.18;101668.27;1933745;74;21104;-64
2022/02/20 08:15:22;;;;;;;6.10;2.70;;;;;;;17.15;38.26;101670.86;1893412;76;21060;-64
2022/02/20 08:17:51;;;;;;;3.47;2.00;;;;;;;17.14;38.21;101607.07;1917905;75;21494;-65
2022/02/20 08:20:20;;;;;;;4.42;2.20;;;;;;;17.43;37.79;101659.21;1917978;75;21466;-62
2022/02/20 08:22:49;;;;;;;4.70;2.45;;;;;;;16.83;38.37;101644.56;1902769;74;21489;-64
2022/02/20 08:25:18;;;;;;;3.12;1.98;;;;;;;17.10;38.17;101643.63;1890028;76;21474;-61
2022/02/20 08:27:47;;;;;;;5.28;2.45;;;;;;;17.36;37.29;101652.89;1871126;76;21485;-63
2022/02/20 08:30:16;;;;;;;2.50;1.45;;;;;;;17.20;37.57;101656.45;1892192;76;21653;-62
2022/02/20 08:32:46;;;;;;;6.62;2.42;;;;;;;17.63;37.28;101641.72;1879885;76;21086;-63
2022/02/20 08:35:14;;;;;;;7.72;1.67;;;;;;;17.34;37.62;101634.81;1890094;76;21007;-62
2022/02/20 08:37:46;;;;;;;2.00;1.07;;;;;;;17.89;37.14;101622.11;1868144;76;21128;-65
2022/02/20 08:40:17;;;;;;;2.67;1.45;;;;;;;18.16;36.26;101644.17;1891993;76;21516;-62
2022/02/20 08:42:49;;;;;;;5.62;1.37;;;;;;;18.68;35.73;101634.48;1893229;76;21070;-62
2022/02/20 08:45:18;;;;;;;3.02;1.90;;;;;;;19.02;34.50;101632.52;1862521;76;21046;-63
2022/02/20 08:47:47;;;;;;;3.42;1.98;;;;;;;19.22;34.09;101620.63;1857492;76;21531;-62
2022/02/20 08:50:16;;;;;;;3.72;1.75;;;;;;;18.92;33.60;101630.02;1855160;77;21532;-62
2022/02/20 08:52:45;;;;;;;2.85;1.67;;;;;;;18.90;33.60;101640.32;1857614;76;21505;-63
2022/02/20 08:55:14;;;;;;;3.95;2.00;;;;;;;18.61;33.58;101643.79;1869241;75;21567;-61
2022/02/20 08:57:44;;;;;;;2.72;1.90;;;;;;;18.57;34.08;101632.92;1917882;75;21509;-61
2022/02/20 09:00:14;;;;;;;5.35;2.67;;;;;;;19.12;33.56;101635.00;1894605;75;21076;-63
2022/02/20 09:02:43;;;;;;;3.90;2.17;;;;;;;18.96;32.62;101619.08;1872705;77;21113;-64
2022/02/20 09:05:13;;;;;;;4.95;2.12;;;;;;;18.82;33.06;101627.89;1909371;75;21050;-65
2022/02/20 09:07:41;;;;;;;4.40;2.22;;;;;;;19.01;33.18;101619.63;1917441;75;21584;-65
2022/02/20 09:10:11;;;;;;;7.95;3.02;;;;;;;19.38;32.84;101592.48;1917828;74;21010;-62
2022/02/20 09:12:42;;;;;;;6.03;2.45;;;;;;;19.62;32.32;101590.07;1890099;75;21108;-64
2022/02/20 09:15:32;;;;;;;8.75;3.12;;;;;;;20.17;31.97;101603.05;1883356;76;21451;-62
2022/02/20 09:18:04;;;;;;;6.40;2.58;;;;;;;19.78;30.99;101580.64;1906812;75;21015;-62
2022/02/20 09:20:33;;;;;;;3.60;2.08;;;;;;;19.26;31.60;101590.11;1906862;75;21058;-62
2022/02/20 09:23:02;;;;;;;3.52;2.17;;;;;;;19.27;32.12;101607.83;1906849;75;21085;-62
2022/02/20 09:25:30;;;;;;;6.95;3.52;;;;;;;19.66;32.08;101587.58;1907108;75;21089;-65
2022/02/20 09:27:59;;;;;;;8.18;3.75;;;;;;;19.92;31.11;101584.62;1906824;75;21035;-63
2022/02/20 09:30:28;;;;;;;9.93;3.92;;;;;;;19.56;30.94;101570.44;1907009;75;21121;-64
2022/02/20 09:32:57;;;;;;;5.55;3.05;;;;;;;19.18;31.68;101586.59;1922512;74;21030;-64
2022/02/20 09:35:26;;;;;;;4.35;2.27;;;;;;;19.13;31.63;101582.49;1928187;74;21539;-63
2022/02/20 09:37:54;;;;;;;6.70;3.70;;;;;;;18.97;32.07;101566.55;1928387;74;21153;-65
2022/02/20 09:40:25;;;;;;;5.50;2.98;;;;;;;19.24;32.10;101562.17;1928213;74;21094;-65
2022/02/20 09:42:55;;;;;;;6.25;3.15;;;;;;;19.43;31.88;101554.34;1915670;74;21010;-62
2022/02/20 09:45:23;;;;;;;5.37;2.70;;;;;;;19.44;31.58;101564.92;1917871;75;21419;-64
2022/02/20 09:47:52;;;;;;;5.08;3.08;;;;;;;19.33;31.53;101577.22;1915359;75;21066;-64
2022/02/20 09:50:21;;;;;;;5.83;3.62;;;;;;;18.86;31.83;101532.03;1907573;75;21151;-63
2022/02/20 09:52:50;;;;;;;5.47;2.85;;;;;;;18.83;32.23;101540.24;1919191;75;21101;-64
2022/02/20 09:55:18;;;;;;;8.58;4.17;;;;;;;18.71;32.13;101542.28;1918291;75;21000;-63
2022/02/20 09:57:47;;;;;;;5.47;3.65;;;;;;;18.35;32.35;101541.33;1915924;75;21089;-64
2022/02/20 10:00:17;;;;;;;5.22;3.00;;;;;;;18.18;32.92;101504.53;1911259;74;21027;-65
2022/02/20 10:02:46;;;;;;;7.12;4.35;;;;;;;17.96;33.48;101522.24;1912767;75;21113;-62
2022/02/20 10:05:21;;;;;;;5.60;3.80;;;;;;;18.38;33.38;101534.02;1917995;75;21475;-62
2022/02/20 10:07:55;;;;;;;6.67;3.58;;;;;;;17.99;33.20;101507.91;1915422;75;21007;-63
2022/02/20 10:10:27;;;;;;;6.87;3.80;;;;;;;17.77;33.57;101486.45;1906907;75;21066;-64
2022/02/20 10:13:03;;;;;;;8.55;3.85;;;;;;;17.67;34.12;101510.10;1906764;75;21069;-61
2022/02/20 10:15:39;;;;;;;7.50;4.55;;;;;;;17.90;33.82;101494.63;1906846;75;21023;-62
2022/02/20 10:18:24;;;;;;;7.47;5.00;;;;;;;17.89;33.70;101471.14;1924057;74;21069;-62
2022/02/20 10:21:15;;;;;;;13.18;4.33;;;;;;;17.83;33.87;101470.59;1933598;74;21120;-60
2022/02/20 10:23:54;;;;;;;7.05;4.22;;;;;;;18.16;34.15;101496.25;1868496;77;21089;-64
2022/02/20 10:26:45;;;;;;;6.67;4.12;;;;;;;18.36;33.58;101505.25;1863384;77;21672;-65
2022/02/20 10:29:25;;;;;;;8.08;4.65;;;;;;;18.22;33.48;101511.87;1841850;77;21060;-65
2022/02/20 10:31:55;;;;;;;7.67;3.98;;;;;;;18.05;33.81;101519.05;1901006;74;21527;-64
2022/02/20 10:34:27;;;;;;;5.58;3.37;;;;;;;17.81;34.52;101499.13;1938177;74;21119;-64
2022/02/20 10:37:01;;;;;;;11.03;4.85;;;;;;;17.88;33.78;101511.18;1938083;74;21511;-64
2022/02/20 10:39:32;;;;;;;8.75;4.12;;;;;;;17.54;34.62;101495.77;1935712;74;21057;-63
2022/02/20 10:42:03;;;;;;;7.85;3.40;;;;;;;17.73;34.90;101495.09;1938156;74;21010;-65
2022/02/20 10:44:32;;;;;;;6.67;4.03;;;;;;;17.59;34.88;101488.84;1937014;74;21550;-64
2022/02/20 10:47:13;;;;;;;8.80;3.98;;;;;;;17.19;35.34;101499.92;1938200;74;21510;-64
2022/02/20 10:49:42;;;;;;;5.87;3.50;;;;;;;16.46;36.79;101505.50;1937717;74;21528;-63
2022/02/20 10:52:25;;;;;;;9.48;3.72;;;;;;;16.16;36.96;101507.94;1917507;74;21525;-67
2022/02/20 10:55:11;;;;;;;5.50;3.40;;;;;;;16.56;36.84;101508.09;1914356;74;21154;-66
2022/02/20 10:57:42;;;;;;;9.35;4.12;;;;;;;16.89;36.39;101500.61;1930679;74;21440;-71
2022/02/20 11:00:19;;;;;;;6.65;3.27;;;;;;;17.32;36.25;101492.97;1929405;74;21202;-70
2022/02/20 11:02:49;;;;;;;5.30;3.00;;;;;;;17.62;35.84;101484.20;1907552;74;21468;-70
2022/02/20 11:05:20;;;;;;;4.83;3.00;;;;;;;17.84;35.58;101492.30;1910982;74;21147;-68
2022/02/20 11:07:49;;;;;;;5.72;3.17;;;;;;;17.98;35.34;101499.03;1904574;75;21492;-70
2022/02/20 11:10:19;;;;;;;11.38;3.72;;;;;;;18.02;35.49;101483.72;1925853;74;21118;-71
2022/02/20 11:12:49;;;;;;;7.65;3.85;;;;;;;17.82;35.49;101491.05;1918060;74;21562;-68
2022/02/20 11:15:19;;;;;;;7.00;3.20;;;;;;;17.75;35.62;101481.21;1904687;75;21026;-69
2022/02/20 11:17:50;;;;;;;5.20;3.72;;;;;;;17.91;35.44;101495.03;1897058;74;21520;-70
2022/02/20 11:20:19;;;;;;;5.58;2.60;;;;;;;17.63;35.06;101491.25;1890062;75;21642;-68
2022/02/20 11:22:51;;;;;;;6.12;3.83;;;;;;;17.21;35.55;101495.37;1918685;75;21027;-67
2022/02/20 11:25:21;;;;;;;6.22;2.90;;;;;;;17.19;36.00;101460.00;1918860;75;21066;-67
2022/02/20 11:27:52;;;;;;;5.90;2.87;;;;;;;16.97;36.56;101489.10;1918816;75;21034;-67
2022/02/20 11:30:21;;;;;;;7.92;3.00;;;;;;;17.13;36.44;101486.92;1918923;75;21527;-69
2022/02/20 11:32:51;;;;;;;5.28;3.45;;;;;;;17.02;36.27;101513.26;1918903;75;21104;-69
2022/02/20 11:35:20;;;;;;;3.75;2.80;;;;;;;16.93;36.02;101496.87;1918753;75;21508;-70
2022/02/20 11:37:58;;;;;;;6.85;3.40;;;;;;;16.88;36.23;101502.05;1918923;75;21054;-69
2022/02/20 11:40:29;;;;;;;6.58;3.08;;;;;;;16.91;36.27;101514.72;1918906;75;21038;-68
2022/02/20 11:43:05;;;;;;;5.83;3.27;;;;;;;16.72;36.41;101520.09;1918956;75;21034;-69
2022/02/20 11:45:37;;;;;;;3.35;2.30;;;;;;;16.42;36.87;101514.58;1918971;75;21200;-69
2022/02/20 11:48:10;;;;;;;6.90;4.30;;;;;;;16.29;37.37;101509.03;1919038;75;21167;-68
2022/02/20 11:50:41;;;;;;;7.85;3.65;;;;;;;16.36;38.13;101522.40;1919174;75;21007;-68